sensor_id;sensor_type;location;lat;lon;timestamp;pressure;altitude;pressure_sealevel;temperature;humidity
64644;BME280;51056;50.330;7.914;2023-11-21T00:02:59;99969.03;;;8.84;100.00
64644;BME280;51056;50.330;7.914;2023-11-21T00:06:03;99963.41;;;8.92;100.00
64644;BME280;51056;50.330;7.914;2023-11-21T00:09:06;99967.84;;;8.90;100.00
64644;BME280;51056;50.330;7.914;2023-11-21T00:12:11;99968.44;;;8.95;100.00
64644;BME280;51056;50.330;7.914;2023-11-21T00:15:14;99969.13;;;8.98;100.00
64644;BME280;51056;50.330;7.914;2023-11-21T00:18:18;99970.63;;;9.02;100.00
64644;BME280;51056;50.330;7.914;2023-11-21T00:21:21;99978.19;;;8.91;100.00
64644;BME280;51056;50.330;7.914;2023-11-21T00:24:24;99979.53;;;8.82;100.00
64644;BME280;51056;50.330;7.914;2023-11-21T00:27:27;99975.94;;;8.85;100.00
64644;BME280;51056;50.330;7.914;2023-11-21T00:30:30;99978.09;;;8.93;100.00
64644;BME280;51056;50.330;7.914;2023-11-21T00:33:34;99980.56;;;8.96;100.00
64644;BME280;51056;50.330;7.914;2023-11-21T00:36:37;99978.03;;;8.94;100.00
64644;BME280;51056;50.330;7.914;2023-11-21T00:39:40;99978.94;;;8.93;100.00
64644;BME280;51056;50.330;7.914;2023-11-21T00:42:43;99978.72;;;8.98;100.00
64644;BME280;51056;50.330;7.914;2023-11-21T00:45:46;99981.81;;;9.04;100.00
64644;BME280;51056;50.330;7.914;2023-11-21T00:48:51;99984.16;;;8.93;100.00
64644;BME280;51056;50.330;7.914;2023-11-21T00:51:55;99979.47;;;8.84;100.00
64644;BME280;51056;50.330;7.914;2023-11-21T00:54:58;99993.50;;;8.81;100.00
64644;BME280;51056;50.330;7.914;2023-11-21T00:58:06;99985.69;;;8.81;100.00
64644;BME280;51056;50.330;7.914;2023-11-21T01:01:09;99983.31;;;8.77;100.00
64644;BME280;51056;50.330;7.914;2023-11-21T01:04:12;99985.69;;;8.81;100.00
64644;BME280;51056;50.330;7.914;2023-11-21T01:07:15;99988.63;;;8.91;100.00
64644;BME280;51056;50.330;7.914;2023-11-21T01:10:18;99984.59;;;8.85;100.00
64644;BME280;51056;50.330;7.914;2023-11-21T01:13:21;99995.09;;;8.84;100.00
64644;BME280;51056;50.330;7.914;2023-11-21T01:16:24;100000.66;;;8.78;100.00
64644;BME280;51056;50.330;7.914;2023-11-21T01:19:27;100000.66;;;8.78;100.00
64644;BME280;51056;50.330;7.914;2023-11-21T01:22:31;99997.56;;;8.87;100.00
64644;BME280;51056;50.330;7.914;2023-11-21T01:25:34;100008.66;;;8.91;100.00
64644;BME280;51056;50.330;7.914;2023-11-21T01:28:37;100008.56;;;8.92;100.00
64644;BME280;51056;50.330;7.914;2023-11-21T01:31:40;100010.41;;;8.90;100.00
64644;BME280;51056;50.330;7.914;2023-11-21T01:34:44;100018.13;;;8.76;100.00
64644;BME280;51056;50.330;7.914;2023-11-21T01:37:46;100014.25;;;8.83;100.00
64644;BME280;51056;50.330;7.914;2023-11-21T01:40:51;100019.00;;;8.92;100.00
64644;BME280;51056;50.330;7.914;2023-11-21T01:43:55;100023.44;;;8.90;100.00
64644;BME280;51056;50.330;7.914;2023-11-21T01:46:58;100033.47;;;8.98;100.00
64644;BME280;51056;50.330;7.914;2023-11-21T01:50:01;100037.69;;;9.00;100.00
64644;BME280;51056;50.330;7.914;2023-11-21T01:53:05;100034.59;;;9.10;100.00
64644;BME280;51056;50.330;7.914;2023-11-21T01:56:09;100036.84;;;9.00;100.00
64644;BME280;51056;50.330;7.914;2023-11-21T01:59:19;100034.63;;;8.92;100.00
64644;BME280;51056;50.330;7.914;2023-11-21T02:02:24;100044.28;;;8.90;100.00
64644;BME280;51056;50.330;7.914;2023-11-21T02:05:27;100038.69;;;8.98;100.00
64644;BME280;51056;50.330;7.914;2023-11-21T02:08:31;100038.59;;;8.99;100.00
64644;BME280;51056;50.330;7.914;2023-11-21T02:11:35;100039.19;;;9.04;100.00
64644;BME280;51056;50.330;7.914;2023-11-21T02:14:38;100038.75;;;8.96;100.00
64644;BME280;51056;50.330;7.914;2023-11-21T02:17:41;100043.72;;;8.85;100.00
64644;BME280;51056;50.330;7.914;2023-11-21T02:20:46;100042.13;;;8.98;100.00
64644;BME280;51056;50.330;7.914;2023-11-21T02:23:50;100046.06;;;8.90;100.00
64644;BME280;51056;50.330;7.914;2023-11-21T02:26:54;100054.56;;;8.93;100.00
64644;BME280;51056;50.330;7.914;2023-11-21T02:29:57;100055.00;;;9.01;100.00
64644;BME280;51056;50.330;7.914;2023-11-21T02:33:01;100055.28;;;8.97;100.00
64644;BME280;51056;50.330;7.914;2023-11-21T02:36:04;100049.88;;;9.00;100.00
64644;BME280;51056;50.330;7.914;2023-11-21T02:39:08;100058.72;;;8.97;100.00
64644;BME280;51056;50.330;7.914;2023-11-21T02:42:11;100059.28;;;9.02;100.00
64644;BME280;51056;50.330;7.914;2023-11-21T02:45:14;100052.03;;;8.92;100.00
64644;BME280;51056;50.330;7.914;2023-11-21T02:48:19;100053.50;;;8.97;100.00
64644;BME280;51056;50.330;7.914;2023-11-21T02:51:22;100059.56;;;8.98;100.00
64644;BME280;51056;50.330;7.914;2023-11-21T02:54:25;100056.44;;;8.91;100.00
64644;BME280;51056;50.330;7.914;2023-11-21T02:57:30;100064.81;;;8.96;100.00
64644;BME280;51056;50.330;7.914;2023-11-21T03:00:33;100060.31;;;9.00;100.00
64644;BME280;51056;50.330;7.914;2023-11-21T03:03:39;100069.88;;;8.99;100.00
64644;BME280;51056;50.330;7.914;2023-11-21T03:06:44;100063.31;;;8.92;100.00
64644;BME280;51056;50.330;7.914;2023-11-21T03:09:47;100063.41;;;8.91;100.00
64644;BME280;51056;50.330;7.914;2023-11-21T03:12:50;100061.63;;;8.91;100.00
64644;BME280;51056;50.330;7.914;2023-11-21T03:15:52;100059.94;;;8.90;100.00
64644;BME280;51056;50.330;7.914;2023-11-21T03:18:55;100073.16;;;8.87;100.00
64644;BME280;51056;50.330;7.914;2023-11-21T03:21:58;100076.81;;;8.83;100.00
64644;BME280;51056;50.330;7.914;2023-11-21T03:25:02;100080.84;;;8.73;100.00
64644;BME280;51056;50.330;7.914;2023-11-21T03:28:06;100091.28;;;8.73;100.00
64644;BME280;51056;50.330;7.914;2023-11-21T03:31:13;100092.47;;;8.83;100.00
64644;BME280;51056;50.330;7.914;2023-11-21T03:34:20;100099.81;;;8.92;100.00
64644;BME280;51056;50.330;7.914;2023-11-21T03:37:23;100097.53;;;8.86;100.00
64644;BME280;51056;50.330;7.914;2023-11-21T03:40:27;100094.69;;;8.91;100.00
64644;BME280;51056;50.330;7.914;2023-11-21T03:43:30;100101.22;;;8.82;100.00
64644;BME280;51056;50.330;7.914;2023-11-21T03:46:32;100102.84;;;8.67;100.00
64644;BME280;51056;50.330;7.914;2023-11-21T03:49:35;100105.81;;;8.77;100.00
64644;BME280;51056;50.330;7.914;2023-11-21T03:52:38;100111.03;;;8.94;100.00
64644;BME280;51056;50.330;7.914;2023-11-21T03:55:41;100110.53;;;9.03;100.00
64644;BME280;51056;50.330;7.914;2023-11-21T03:58:44;100104.81;;;8.97;100.00
64644;BME280;51056;50.330;7.914;2023-11-21T04:01:47;100118.06;;;8.92;100.00
64644;BME280;51056;50.330;7.914;2023-11-21T04:04:50;100110.88;;;8.97;100.00
64644;BME280;51056;50.330;7.914;2023-11-21T04:07:53;100119.59;;;8.96;100.00
64644;BME280;51056;50.330;7.914;2023-11-21T04:10:56;100119.06;;;8.90;100.00
64644;BME280;51056;50.330;7.914;2023-11-21T04:13:59;100125.41;;;9.01;100.00
64644;BME280;51056;50.330;7.914;2023-11-21T04:17:02;100123.91;;;8.97;100.00
64644;BME280;51056;50.330;7.914;2023-11-21T04:20:07;100134.03;;;8.86;100.00
64644;BME280;51056;50.330;7.914;2023-11-21T04:23:11;100134.19;;;8.83;100.00
64644;BME280;51056;50.330;7.914;2023-11-21T04:26:16;100140.94;;;8.87;100.00
64644;BME280;51056;50.330;7.914;2023-11-21T04:29:19;100142.63;;;8.88;100.00
64644;BME280;51056;50.330;7.914;2023-11-21T04:32:22;100152.91;;;8.91;100.00
64644;BME280;51056;50.330;7.914;2023-11-21T04:35:24;100151.44;;;8.85;100.00
64644;BME280;51056;50.330;7.914;2023-11-21T04:38:27;100154.00;;;8.87;100.00
64644;BME280;51056;50.330;7.914;2023-11-21T04:41:30;100157.34;;;8.89;100.00
64644;BME280;51056;50.330;7.914;2023-11-21T04:44:34;100160.47;;;8.96;100.00
64644;BME280;51056;50.330;7.914;2023-11-21T04:47:37;100167.91;;;9.03;100.00
64644;BME280;51056;50.330;7.914;2023-11-21T04:50:40;100169.91;;;8.98;100.00
64644;BME280;51056;50.330;7.914;2023-11-21T04:53:43;100180.44;;;8.97;100.00
64644;BME280;51056;50.330;7.914;2023-11-21T04:56:47;100177.81;;;8.97;100.00
64644;BME280;51056;50.330;7.914;2023-11-21T04:59:50;100179.03;;;8.90;100.00
64644;BME280;51056;50.330;7.914;2023-11-21T05:02:53;100185.44;;;8.84;100.00
64644;BME280;51056;50.330;7.914;2023-11-21T05:05:56;100182.00;;;8.99;100.00
64644;BME280;51056;50.330;7.914;2023-11-21T05:08:59;100188.94;;;9.00;100.00
64644;BME280;51056;50.330;7.914;2023-11-21T05:12:07;100187.91;;;9.03;100.00
64644;BME280;51056;50.330;7.914;2023-11-21T05:15:28;100195.69;;;9.04;100.00
64644;BME280;51056;50.330;7.914;2023-11-21T05:18:32;100196.75;;;9.00;100.00
64644;BME280;51056;50.330;7.914;2023-11-21T05:21:36;100194.16;;;9.00;100.00
64644;BME280;51056;50.330;7.914;2023-11-21T05:24:39;100196.75;;;9.00;100.00
64644;BME280;51056;50.330;7.914;2023-11-21T05:27:45;100209.81;;;9.00;100.00
64644;BME280;51056;50.330;7.914;2023-11-21T05:30:48;100215.31;;;8.94;100.00
64644;BME280;51056;50.330;7.914;2023-11-21T05:37:21;100216.84;;;8.98;100.00
64644;BME280;51056;50.330;7.914;2023-11-21T05:40:26;100211.47;;;9.01;100.00
64644;BME280;51056;50.330;7.914;2023-11-21T05:43:32;100225.19;;;9.05;100.00
64644;BME280;51056;50.330;7.914;2023-11-21T05:46:38;100230.19;;;9.10;100.00
64644;BME280;51056;50.330;7.914;2023-11-21T05:49:41;100226.34;;;8.99;100.00
64644;BME280;51056;50.330;7.914;2023-11-21T05:52:45;100221.59;;;8.90;100.00
64644;BME280;51056;50.330;7.914;2023-11-21T05:55:50;100226.38;;;8.82;100.00
64644;BME280;51056;50.330;7.914;2023-11-21T05:58:54;100232.19;;;8.87;100.00
64644;BME280;51056;50.330;7.914;2023-11-21T06:01:57;100235.41;;;8.92;100.00
64644;BME280;51056;50.330;7.914;2023-11-21T06:05:01;100236.50;;;8.88;100.00
64644;BME280;51056;50.330;7.914;2023-11-21T06:08:03;100240.19;;;8.84;100.00
64644;BME280;51056;50.330;7.914;2023-11-21T06:11:07;100242.69;;;8.85;100.00
64644;BME280;51056;50.330;7.914;2023-11-21T06:14:11;100246.00;;;8.89;100.00
64644;BME280;51056;50.330;7.914;2023-11-21T06:17:14;100249.88;;;8.80;100.00
64644;BME280;51056;50.330;7.914;2023-11-21T06:20:17;100249.97;;;8.79;100.00
64644;BME280;51056;50.330;7.914;2023-11-21T06:23:21;100261.19;;;8.81;100.00
64644;BME280;51056;50.330;7.914;2023-11-21T06:26:24;100263.31;;;8.73;100.00
64644;BME280;51056;50.330;7.914;2023-11-21T06:29:28;100276.28;;;8.74;100.00
64644;BME280;51056;50.330;7.914;2023-11-21T06:32:31;100280.63;;;8.74;100.00
64644;BME280;51056;50.330;7.914;2023-11-21T06:35:34;100282.94;;;8.80;100.00
64644;BME280;51056;50.330;7.914;2023-11-21T06:38:37;100288.25;;;8.78;100.00
64644;BME280;51056;50.330;7.914;2023-11-21T06:41:41;100298.03;;;8.73;100.00
64644;BME280;51056;50.330;7.914;2023-11-21T06:44:44;100305.81;;;8.75;100.00
64644;BME280;51056;50.330;7.914;2023-11-21T06:47:47;100308.69;;;8.69;100.00
64644;BME280;51056;50.330;7.914;2023-11-21T06:50:50;100314.06;;;8.66;100.00
64644;BME280;51056;50.330;7.914;2023-11-21T06:53:54;100318.97;;;8.72;100.00
64644;BME280;51056;50.330;7.914;2023-11-21T06:56:57;100326.56;;;8.76;100.00
64644;BME280;51056;50.330;7.914;2023-11-21T07:00:00;100324.75;;;8.78;100.00
64644;BME280;51056;50.330;7.914;2023-11-21T07:03:04;100340.94;;;8.85;100.00
64644;BME280;51056;50.330;7.914;2023-11-21T07:06:07;100342.75;;;8.83;100.00
64644;BME280;51056;50.330;7.914;2023-11-21T07:09:10;100339.09;;;8.87;100.00
64644;BME280;51056;50.330;7.914;2023-11-21T07:12:14;100348.75;;;8.85;100.00
64644;BME280;51056;50.330;7.914;2023-11-21T07:15:19;100361.59;;;8.71;100.00
64644;BME280;51056;50.330;7.914;2023-11-21T07:18:22;100350.41;;;8.69;100.00
64644;BME280;51056;50.330;7.914;2023-11-21T07:21:25;100363.44;;;8.69;100.00
64644;BME280;51056;50.330;7.914;2023-11-21T07:24:28;100369.75;;;8.82;100.00
64644;BME280;51056;50.330;7.914;2023-11-21T07:27:33;100374.81;;;8.85;100.00
64644;BME280;51056;50.330;7.914;2023-11-21T07:30:38;100374.03;;;8.83;100.00
64644;BME280;51056;50.330;7.914;2023-11-21T07:33:41;100379.34;;;8.81;100.00
64644;BME280;51056;50.330;7.914;2023-11-21T07:36:44;100382.94;;;8.79;100.00
64644;BME280;51056;50.330;7.914;2023-11-21T07:39:47;100384.28;;;8.69;100.00
64644;BME280;51056;50.330;7.914;2023-11-21T07:42:49;100392.44;;;8.80;100.00
64644;BME280;51056;50.330;7.914;2023-11-21T07:45:54;100396.25;;;8.73;100.00
64644;BME280;51056;50.330;7.914;2023-11-21T07:49:12;100407.38;;;8.76;100.00
64644;BME280;51056;50.330;7.914;2023-11-21T07:53:08;100409.69;;;8.82;100.00
64644;BME280;51056;50.330;7.914;2023-11-21T07:56:12;100413.00;;;8.86;100.00
64644;BME280;51056;50.330;7.914;2023-11-21T07:59:15;100415.03;;;8.98;100.00
64644;BME280;51056;50.330;7.914;2023-11-21T08:02:21;100418.72;;;8.94;100.00
64644;BME280;51056;50.330;7.914;2023-11-21T08:05:38;100426.03;;;9.05;100.00
64644;BME280;51056;50.330;7.914;2023-11-21T08:08:42;100428.88;;;9.00;100.00
64644;BME280;51056;50.330;7.914;2023-11-21T08:11:46;100436.28;;;8.91;100.00
64644;BME280;51056;50.330;7.914;2023-11-21T08:14:49;100432.63;;;9.12;100.00
64644;BME280;51056;50.330;7.914;2023-11-21T08:17:53;100435.09;;;9.15;100.00
64644;BME280;51056;50.330;7.914;2023-11-21T08:21:00;100441.78;;;9.21;100.00
64644;BME280;51056;50.330;7.914;2023-11-21T08:24:33;100441.34;;;9.13;100.00
64644;BME280;51056;50.330;7.914;2023-11-21T08:27:39;100445.81;;;9.09;100.00
64644;BME280;51056;50.330;7.914;2023-11-21T08:30:45;100456.25;;;9.09;100.00
64644;BME280;51056;50.330;7.914;2023-11-21T08:33:48;100454.00;;;9.20;100.00
64644;BME280;51056;50.330;7.914;2023-11-21T08:36:51;100461.44;;;9.28;100.00
64644;BME280;51056;50.330;7.914;2023-11-21T08:39:53;100465.47;;;9.35;100.00
64644;BME280;51056;50.330;7.914;2023-11-21T08:42:57;100458.25;;;9.40;100.00
64644;BME280;51056;50.330;7.914;2023-11-21T08:46:01;100456.63;;;9.38;100.00
64644;BME280;51056;50.330;7.914;2023-11-21T08:49:04;100452.72;;;9.29;100.00
64644;BME280;51056;50.330;7.914;2023-11-21T08:52:09;100454.41;;;9.47;100.00
64644;BME280;51056;50.330;7.914;2023-11-21T08:55:13;100447.84;;;9.58;100.00
64644;BME280;51056;50.330;7.914;2023-11-21T08:58:16;100463.81;;;9.69;100.00
64644;BME280;51056;50.330;7.914;2023-11-21T09:01:19;100460.91;;;9.58;100.00
64644;BME280;51056;50.330;7.914;2023-11-21T09:04:23;100462.63;;;9.57;100.00
64644;BME280;51056;50.330;7.914;2023-11-21T09:07:26;100470.31;;;9.60;100.00
64644;BME280;51056;50.330;7.914;2023-11-21T09:10:29;100469.34;;;9.63;100.00
64644;BME280;51056;50.330;7.914;2023-11-21T09:13:32;100471.94;;;9.63;100.00
64644;BME280;51056;50.330;7.914;2023-11-21T09:16:35;100474.25;;;9.69;100.00
64644;BME280;51056;50.330;7.914;2023-11-21T09:19:38;100486.38;;;9.70;100.00
64644;BME280;51056;50.330;7.914;2023-11-21T09:22:43;100482.88;;;9.71;100.00
64644;BME280;51056;50.330;7.914;2023-11-21T09:25:48;100489.91;;;9.69;100.00
64644;BME280;51056;50.330;7.914;2023-11-21T09:28:53;100490.69;;;9.71;100.00
64644;BME280;51056;50.330;7.914;2023-11-21T09:32:00;100490.31;;;9.78;100.00
64644;BME280;51056;50.330;7.914;2023-11-21T09:35:30;100496.66;;;9.73;100.00
64644;BME280;51056;50.330;7.914;2023-11-21T09:38:33;100502.97;;;9.51;100.00
64644;BME280;51056;50.330;7.914;2023-11-21T09:48:00;100516.56;;;9.75;100.00
64644;BME280;51056;50.330;7.914;2023-11-21T09:51:04;100524.78;;;9.68;100.00
64644;BME280;51056;50.330;7.914;2023-11-21T09:54:10;100532.53;;;9.69;100.00
64644;BME280;51056;50.330;7.914;2023-11-21T09:57:13;100542.97;;;9.69;100.00
64644;BME280;51056;50.330;7.914;2023-11-21T10:00:16;100536.22;;;9.83;100.00
64644;BME280;51056;50.330;7.914;2023-11-21T10:03:26;100541.22;;;9.70;100.00
64644;BME280;51056;50.330;7.914;2023-11-21T10:06:29;100548.06;;;9.72;100.00
64644;BME280;51056;50.330;7.914;2023-11-21T10:09:33;100540.91;;;9.59;100.00
64644;BME280;51056;50.330;7.914;2023-11-21T10:12:37;100548.72;;;9.59;100.00
64644;BME280;51056;50.330;7.914;2023-11-21T10:15:41;100546.00;;;9.24;100.00
64644;BME280;51056;50.330;7.914;2023-11-21T10:18:48;100544.47;;;9.20;100.00
64644;BME280;51056;50.330;7.914;2023-11-21T10:21:52;100547.97;;;9.19;100.00
64644;BME280;51056;50.330;7.914;2023-11-21T10:24:57;100562.91;;;9.34;100.00
64644;BME280;51056;50.330;7.914;2023-11-21T10:28:01;100547.19;;;9.54;99.56
64644;BME280;51056;50.330;7.914;2023-11-21T10:31:07;100553.91;;;9.77;99.07
64644;BME280;51056;50.330;7.914;2023-11-21T10:34:14;100558.84;;;10.01;97.54
64644;BME280;51056;50.330;7.914;2023-11-21T10:37:18;100556.00;;;9.88;96.53
64644;BME280;51056;50.330;7.914;2023-11-21T10:40:23;100551.69;;;10.05;97.92
64644;BME280;51056;50.330;7.914;2023-11-21T10:43:25;100552.19;;;10.13;97.55
64644;BME280;51056;50.330;7.914;2023-11-21T10:46:30;100550.78;;;10.06;97.12
64644;BME280;51056;50.330;7.914;2023-11-21T10:49:34;100554.00;;;10.11;98.13
64644;BME280;51056;50.330;7.914;2023-11-21T10:52:40;100556.94;;;10.22;96.72
64644;BME280;51056;50.330;7.914;2023-11-21T10:55:46;100567.06;;;9.93;95.48
64644;BME280;51056;50.330;7.914;2023-11-21T10:58:49;100561.69;;;9.96;96.34
64644;BME280;51056;50.330;7.914;2023-11-21T11:01:53;100566.47;;;10.06;96.42
64644;BME280;51056;50.330;7.914;2023-11-21T11:04:57;100576.28;;;10.00;96.51
64644;BME280;51056;50.330;7.914;2023-11-21T11:08:04;100566.09;;;9.96;97.56
64644;BME280;51056;50.330;7.914;2023-11-21T11:11:08;100565.84;;;9.83;99.12
64644;BME280;51056;50.330;7.914;2023-11-21T11:14:13;100560.91;;;10.31;98.33
64644;BME280;51056;50.330;7.914;2023-11-21T11:17:16;100558.50;;;10.43;97.47
64644;BME280;51056;50.330;7.914;2023-11-21T11:20:19;100555.59;;;10.65;93.71
64644;BME280;51056;50.330;7.914;2023-11-21T11:23:30;100557.84;;;10.73;92.93
64644;BME280;51056;50.330;7.914;2023-11-21T11:29:54;100551.81;;;10.88;90.38
64644;BME280;51056;50.330;7.914;2023-11-21T11:36:22;100554.66;;;10.33;89.03
64644;BME280;51056;50.330;7.914;2023-11-21T11:39:35;100557.09;;;10.19;88.45
64644;BME280;51056;50.330;7.914;2023-11-21T11:42:39;100556.59;;;10.47;86.80
64644;BME280;51056;50.330;7.914;2023-11-21T11:45:42;100559.47;;;10.23;89.98
64644;BME280;51056;50.330;7.914;2023-11-21T11:48:47;100557.63;;;10.43;88.61
64644;BME280;51056;50.330;7.914;2023-11-21T11:55:15;100554.81;;;10.30;90.42
64644;BME280;51056;50.330;7.914;2023-11-21T11:58:21;100568.56;;;10.51;90.21
64644;BME280;51056;50.330;7.914;2023-11-21T12:01:39;100564.50;;;10.45;91.16
64644;BME280;51056;50.330;7.914;2023-11-21T12:04:47;100571.66;;;10.75;90.55
64644;BME280;51056;50.330;7.914;2023-11-21T12:07:54;100579.66;;;10.56;87.87
64644;BME280;51056;50.330;7.914;2023-11-21T12:10:57;100576.84;;;10.24;89.12
64644;BME280;51056;50.330;7.914;2023-11-21T12:14:01;100575.44;;;10.17;91.46
64644;BME280;51056;50.330;7.914;2023-11-21T12:17:04;100576.81;;;10.43;90.34
64644;BME280;51056;50.330;7.914;2023-11-21T12:20:08;100575.03;;;10.27;88.71
64644;BME280;51056;50.330;7.914;2023-11-21T12:23:17;100575.78;;;10.46;89.31
64644;BME280;51056;50.330;7.914;2023-11-21T12:26:22;100580.06;;;10.64;89.30
64644;BME280;51056;50.330;7.914;2023-11-21T12:29:25;100584.31;;;10.50;88.94
64644;BME280;51056;50.330;7.914;2023-11-21T12:32:28;100577.97;;;10.71;89.67
64644;BME280;51056;50.330;7.914;2023-11-21T12:35:32;100586.53;;;10.40;88.86
64644;BME280;51056;50.330;7.914;2023-11-21T12:38:38;100591.81;;;10.21;87.93
64644;BME280;51056;50.330;7.914;2023-11-21T12:41:41;100586.16;;;10.30;90.62
64644;BME280;51056;50.330;7.914;2023-11-21T12:44:45;100593.25;;;10.28;89.35
64644;BME280;51056;50.330;7.914;2023-11-21T12:47:50;100597.16;;;10.37;88.50
64644;BME280;51056;50.330;7.914;2023-11-21T12:50:54;100594.47;;;10.56;87.06
64644;BME280;51056;50.330;7.914;2023-11-21T12:53:58;100604.44;;;10.65;87.83
64644;BME280;51056;50.330;7.914;2023-11-21T12:57:02;100604.69;;;10.43;86.87
64644;BME280;51056;50.330;7.914;2023-11-21T13:00:07;100601.94;;;10.46;86.95
64644;BME280;51056;50.330;7.914;2023-11-21T13:03:16;100611.22;;;10.52;86.22
64644;BME280;51056;50.330;7.914;2023-11-21T13:06:21;100621.38;;;10.58;86.39
64644;BME280;51056;50.330;7.914;2023-11-21T13:09:27;100613.06;;;10.50;86.06
64644;BME280;51056;50.330;7.914;2023-11-21T13:12:30;100614.84;;;10.32;85.76
64644;BME280;51056;50.330;7.914;2023-11-21T13:15:39;100616.31;;;10.55;86.00
64644;BME280;51056;50.330;7.914;2023-11-21T13:18:43;100625.25;;;10.51;85.95
64644;BME280;51056;50.330;7.914;2023-11-21T13:21:47;100637.38;;;10.52;86.15
64644;BME280;51056;50.330;7.914;2023-11-21T13:24:49;100631.16;;;10.54;86.16
64644;BME280;51056;50.330;7.914;2023-11-21T13:27:56;100632.25;;;10.50;86.96
64644;BME280;51056;50.330;7.914;2023-11-21T13:30:59;100633.84;;;10.53;86.88
64644;BME280;51056;50.330;7.914;2023-11-21T13:34:11;100645.31;;;10.50;88.84
64644;BME280;51056;50.330;7.914;2023-11-21T13:37:17;100649.66;;;10.50;85.43
64644;BME280;51056;50.330;7.914;2023-11-21T13:40:20;100651.38;;;10.51;86.17
64644;BME280;51056;50.330;7.914;2023-11-21T13:43:28;100642.41;;;10.56;86.61
64644;BME280;51056;50.330;7.914;2023-11-21T13:46:31;100630.59;;;10.65;87.23
64644;BME280;51056;50.330;7.914;2023-11-21T13:49:39;100640.38;;;10.61;86.83
64644;BME280;51056;50.330;7.914;2023-11-21T13:52:46;100642.94;;;10.63;87.46
64644;BME280;51056;50.330;7.914;2023-11-21T13:55:53;100640.63;;;10.57;88.72
64644;BME280;51056;50.330;7.914;2023-11-21T13:58:57;100654.53;;;10.57;88.87
64644;BME280;51056;50.330;7.914;2023-11-21T14:02:02;100658.69;;;10.61;88.38
64644;BME280;51056;50.330;7.914;2023-11-21T14:05:20;100656.53;;;10.52;88.31
64644;BME280;51056;50.330;7.914;2023-11-21T14:08:32;100654.53;;;10.57;90.35
64644;BME280;51056;50.330;7.914;2023-11-21T14:11:35;100663.13;;;10.42;92.65
64644;BME280;51056;50.330;7.914;2023-11-21T14:14:41;100674.97;;;10.32;93.96
64644;BME280;51056;50.330;7.914;2023-11-21T14:17:44;100668.38;;;10.42;94.05
64644;BME280;51056;50.330;7.914;2023-11-21T14:20:47;100663.53;;;10.34;94.62
64644;BME280;51056;50.330;7.914;2023-11-21T14:23:50;100655.84;;;10.31;94.92
64644;BME280;51056;50.330;7.914;2023-11-21T14:26:53;100664.66;;;10.29;95.11
64644;BME280;51056;50.330;7.914;2023-11-21T14:29:57;100669.81;;;10.30;94.55
64644;BME280;51056;50.330;7.914;2023-11-21T14:33:00;100665.66;;;10.26;96.06
64644;BME280;51056;50.330;7.914;2023-11-21T14:36:04;100671.94;;;10.22;96.61
64644;BME280;51056;50.330;7.914;2023-11-21T14:39:07;100681.03;;;10.13;96.29
64644;BME280;51056;50.330;7.914;2023-11-21T14:42:14;100685.38;;;9.95;97.25
64644;BME280;51056;50.330;7.914;2023-11-21T14:45:27;100687.53;;;10.05;97.20
64644;BME280;51056;50.330;7.914;2023-11-21T14:48:31;100689.53;;;9.99;98.59
64644;BME280;51056;50.330;7.914;2023-11-21T14:51:52;100704.56;;;9.94;99.63
64644;BME280;51056;50.330;7.914;2023-11-21T14:55:10;100706.56;;;9.89;99.44
64644;BME280;51056;50.330;7.914;2023-11-21T14:58:26;100712.34;;;9.96;99.49
64644;BME280;51056;50.330;7.914;2023-11-21T15:01:30;100711.19;;;10.01;99.42
64644;BME280;51056;50.330;7.914;2023-11-21T15:04:48;100713.25;;;9.95;99.76
64644;BME280;51056;50.330;7.914;2023-11-21T15:07:55;100714.28;;;9.92;100.00
64644;BME280;51056;50.330;7.914;2023-11-21T15:11:16;100722.72;;;9.97;100.00
64644;BME280;51056;50.330;7.914;2023-11-21T15:14:19;100727.53;;;9.88;100.00
64644;BME280;51056;50.330;7.914;2023-11-21T15:17:28;100729.00;;;9.93;99.97
64644;BME280;51056;50.330;7.914;2023-11-21T15:20:33;100738.06;;;10.05;100.00
64644;BME280;51056;50.330;7.914;2023-11-21T15:23:36;100734.66;;;10.22;99.66
64644;BME280;51056;50.330;7.914;2023-11-21T15:26:39;100741.94;;;9.96;100.00
64644;BME280;51056;50.330;7.914;2023-11-21T15:29:42;100743.06;;;10.10;100.00
64644;BME280;51056;50.330;7.914;2023-11-21T15:32:45;100741.50;;;10.06;100.00
64644;BME280;51056;50.330;7.914;2023-11-21T15:35:49;100737.16;;;10.23;100.00
64644;BME280;51056;50.330;7.914;2023-11-21T15:38:55;100742.25;;;10.08;100.00
64644;BME280;51056;50.330;7.914;2023-11-21T15:41:58;100748.78;;;9.99;100.00
64644;BME280;51056;50.330;7.914;2023-11-21T15:45:02;100744.81;;;10.09;100.00
64644;BME280;51056;50.330;7.914;2023-11-21T15:48:08;100751.72;;;9.91;100.00
64644;BME280;51056;50.330;7.914;2023-11-21T15:51:13;100756.91;;;9.74;100.00
64644;BME280;51056;50.330;7.914;2023-11-21T15:54:16;100751.44;;;9.78;100.00
64644;BME280;51056;50.330;7.914;2023-11-21T15:57:19;100756.34;;;9.86;100.00
64644;BME280;51056;50.330;7.914;2023-11-21T16:00:24;100758.50;;;9.95;100.00
64644;BME280;51056;50.330;7.914;2023-11-21T16:03:27;100763.03;;;9.92;100.00
64644;BME280;51056;50.330;7.914;2023-11-21T16:06:31;100770.66;;;9.96;100.00
64644;BME280;51056;50.330;7.914;2023-11-21T16:09:37;100778.13;;;9.85;100.00
64644;BME280;51056;50.330;7.914;2023-11-21T16:12:42;100769.53;;;9.83;100.00
64644;BME280;51056;50.330;7.914;2023-11-21T16:15:45;100778.38;;;9.99;100.00
64644;BME280;51056;50.330;7.914;2023-11-21T16:18:48;100776.03;;;9.93;100.00
64644;BME280;51056;50.330;7.914;2023-11-21T16:21:54;100784.13;;;9.87;100.00
64644;BME280;51056;50.330;7.914;2023-11-21T16:24:58;100791.59;;;9.76;100.00
64644;BME280;51056;50.330;7.914;2023-11-21T16:28:00;100787.31;;;9.75;100.00